createdAt,value
2019-05-13T00:00:23.582Z,7.10
2019-05-13T00:02:50.831Z,7.11
2019-05-13T00:05:18.245Z,7.13
2019-05-13T00:07:45.427Z,7.12
2019-05-13T00:10:14.601Z,7.14
2019-05-13T00:12:43.915Z,7.19
2019-05-13T00:15:11.236Z,7.18
2019-05-13T00:17:38.596Z,7.07
2019-05-13T00:20:05.905Z,7.06
2019-05-13T00:22:34.007Z,7.11
2019-05-13T00:25:03.847Z,7.05
2019-05-13T00:27:31.087Z,7.07
2019-05-13T00:30:00.140Z,7.15
2019-05-13T00:32:27.260Z,7.17
2019-05-13T00:34:54.557Z,7.11
2019-05-13T00:37:21.794Z,7.04
2019-05-13T00:39:49.008Z,6.97
2019-05-13T00:42:16.189Z,6.90
2019-05-13T00:44:44.339Z,6.92
2019-05-13T00:47:13.271Z,6.93
2019-05-13T00:49:40.470Z,7.02
2019-05-13T00:52:07.732Z,7.10
2019-05-13T00:54:34.953Z,6.99
2019-05-13T00:57:04.141Z,6.91
2019-05-13T00:59:33.924Z,6.92
2019-05-13T01:02:03.385Z,6.88
2019-05-13T01:04:30.133Z,6.80
2019-05-13T01:06:57.351Z,6.81
2019-05-13T01:09:24.495Z,6.74
2019-05-13T01:11:53.723Z,6.69
2019-05-13T01:14:20.723Z,6.73
2019-05-13T01:16:47.878Z,6.80
2019-05-13T01:19:15.063Z,6.80
2019-05-13T01:21:43.557Z,6.77
2019-05-13T01:24:10.814Z,6.71
2019-05-13T01:26:38.013Z,6.73
2019-05-13T01:29:05.193Z,6.74
2019-05-13T01:31:34.395Z,6.65
2019-05-13T01:34:03.958Z,6.59
2019-05-13T01:36:30.839Z,6.66
2019-05-13T01:38:58.019Z,6.59
2019-05-13T01:41:25.166Z,6.44
2019-05-13T01:43:54.413Z,6.41
2019-05-13T01:46:23.957Z,6.51
2019-05-13T01:48:50.565Z,6.48
2019-05-13T01:51:17.889Z,6.43
2019-05-13T01:53:45.407Z,6.52
2019-05-13T01:56:14.140Z,6.55
2019-05-13T01:58:41.597Z,6.54
2019-05-13T02:01:08.743Z,6.47
2019-05-13T02:03:35.913Z,6.40
2019-05-13T02:06:03.889Z,6.47
2019-05-13T02:08:33.466Z,6.44
2019-05-13T02:11:00.724Z,6.47
2019-05-13T02:13:27.913Z,6.49
2019-05-13T02:15:55.433Z,6.45
2019-05-13T02:18:24.390Z,6.49
2019-05-13T02:20:54.892Z,6.47
2019-05-13T02:23:23.241Z,6.47
2019-05-13T02:25:50.430Z,6.41
2019-05-13T02:28:17.643Z,6.37
2019-05-13T02:30:45.710Z,6.29
2019-05-13T02:33:13.546Z,6.24
2019-05-13T02:35:43.399Z,6.21
2019-05-13T02:38:21.272Z,6.30
2019-05-13T02:40:42.882Z,6.20
2019-05-13T02:43:08.869Z,6.32
2019-05-13T02:45:36.214Z,6.26
2019-05-13T02:48:03.711Z,6.11
2019-05-13T02:50:33.794Z,5.95
2019-05-13T02:53:02.414Z,5.84
2019-05-13T02:55:29.162Z,5.83
2019-05-13T02:57:56.385Z,5.81
2019-05-13T03:00:23.784Z,5.82
2019-05-13T03:02:52.475Z,5.89
2019-05-13T03:05:21.992Z,5.89
2019-05-13T03:07:52.966Z,5.91
2019-05-13T03:10:18.326Z,5.92
2019-05-13T03:12:45.568Z,5.87
2019-05-13T03:15:13.538Z,5.73
2019-05-13T03:18:03.189Z,5.64
2019-05-13T03:20:33.032Z,5.80
2019-05-13T03:22:58.703Z,5.73
2019-05-13T03:25:25.923Z,5.70
2019-05-13T03:27:54.333Z,5.86
2019-05-13T03:30:25.198Z,5.74
2019-05-13T03:32:59.791Z,5.71
2019-05-13T03:35:25.735Z,5.96
2019-05-13T03:37:52.633Z,5.85
2019-05-13T03:40:18.830Z,5.68
2019-05-13T03:42:47.724Z,5.63
2019-05-13T03:45:14.931Z,5.73
2019-05-13T03:47:44.413Z,5.73
2019-05-13T03:50:12.987Z,5.67
2019-05-13T03:52:43.360Z,5.61
2019-05-13T03:55:13.074Z,5.57
2019-05-13T03:57:42.598Z,5.59
2019-05-13T04:00:12.903Z,5.69
2019-05-13T04:02:38.732Z,5.67
2019-05-13T04:05:05.889Z,5.71
2019-05-13T04:07:33.060Z,5.70
2019-05-13T04:10:03.346Z,5.70
2019-05-13T04:12:33.096Z,5.75
2019-05-13T04:14:58.700Z,5.86
2019-05-13T04:17:25.958Z,5.87
2019-05-13T04:19:53.259Z,5.93
2019-05-13T04:22:23.032Z,6.01
2019-05-13T04:24:52.756Z,6.13
2019-05-13T04:27:18.944Z,6.21
2019-05-13T04:29:46.235Z,6.41
2019-05-13T04:32:14.303Z,6.45
2019-05-13T04:34:42.470Z,6.48
2019-05-13T04:37:12.930Z,6.63
2019-05-13T04:39:47.685Z,6.59
2019-05-13T04:42:08.083Z,6.75
2019-05-13T04:44:35.262Z,6.76
2019-05-13T04:47:03.862Z,8.16
2019-05-13T04:49:32.546Z,11.49
2019-05-13T04:52:03.341Z,14.61
2019-05-13T04:54:32.759Z,16.63
2019-05-13T04:56:58.488Z,17.17
2019-05-13T04:59:25.646Z,18.77
2019-05-13T05:02:46.135Z,20.58
2019-05-13T05:05:22.566Z,20.75
2019-05-13T05:08:06.323Z,22.30
2019-05-13T05:11:02.612Z,22.68
2019-05-13T05:13:56.663Z,23.68
2019-05-13T05:16:44.077Z,23.55
2019-05-13T05:19:52.237Z,24.80
2019-05-13T05:22:51.498Z,25.25
2019-05-13T05:26:03.420Z,25.32
2019-05-13T05:28:46.092Z,26.23
2019-05-13T05:31:46.786Z,28.40
2019-05-13T05:34:51.915Z,28.98
2019-05-13T05:38:07.308Z,28.97
2019-05-13T05:40:36.517Z,26.71
2019-05-13T05:43:04.749Z,27.67
2019-05-13T05:45:34.600Z,28.06
2019-05-13T05:48:03.776Z,26.16
2019-05-13T05:50:32.278Z,26.68
2019-05-13T05:53:01.893Z,26.98
2019-05-13T05:55:31.816Z,27.83
2019-05-13T05:58:01.696Z,28.07
2019-05-13T06:00:32.337Z,29.31
2019-05-13T06:03:02.546Z,29.85
2019-05-13T06:05:31.862Z,29.94
2019-05-13T06:07:59.200Z,30.27
2019-05-13T06:10:26.360Z,30.68
2019-05-13T06:12:53.912Z,29.82
2019-05-13T06:15:22.546Z,30.48
2019-05-13T06:17:51.816Z,32.00
2019-05-13T06:20:20.991Z,31.13
2019-05-13T06:22:48.002Z,31.38
2019-05-13T06:25:15.360Z,32.76
2019-05-13T06:27:42.668Z,32.98
2019-05-13T06:30:12.648Z,33.82
2019-05-13T06:32:41.661Z,34.42
2019-05-13T06:35:08.621Z,33.23
2019-05-13T06:37:36.035Z,32.90
2019-05-13T06:40:03.428Z,31.22
2019-05-13T06:42:32.425Z,30.06
2019-05-13T06:45:01.894Z,30.13
2019-05-13T06:47:28.911Z,29.68
2019-05-13T06:49:56.107Z,29.91
2019-05-13T06:52:23.322Z,31.38
2019-05-13T06:54:52.081Z,33.07
2019-05-13T06:57:21.817Z,35.02
2019-05-13T06:59:48.738Z,33.13
2019-05-13T07:02:15.903Z,31.94
2019-05-13T07:04:43.118Z,32.92
2019-05-13T07:07:16.124Z,32.98
2019-05-13T07:09:39.472Z,33.75
2019-05-13T07:12:06.662Z,33.52
2019-05-13T07:14:33.773Z,34.26
2019-05-13T07:17:01.928Z,34.90
2019-05-13T07:19:31.935Z,33.96
2019-05-13T07:21:58.756Z,34.12
2019-05-13T07:24:25.971Z,34.91
2019-05-13T07:26:53.376Z,35.59
2019-05-13T07:29:23.888Z,34.26
2019-05-13T07:31:52.048Z,34.21
2019-05-13T07:34:18.763Z,34.57
2019-05-13T07:36:47.069Z,34.80
2019-05-13T07:39:14.256Z,34.46
2019-05-13T07:41:43.186Z,33.03
2019-05-13T07:44:11.832Z,33.06
2019-05-13T07:46:39.249Z,34.70
2019-05-13T07:49:06.498Z,34.25
2019-05-13T07:51:33.716Z,35.97
2019-05-13T07:54:02.294Z,36.90
2019-05-13T07:56:32.228Z,37.34
2019-05-13T07:59:01.503Z,36.58
2019-05-13T08:01:28.224Z,36.38
2019-05-13T08:03:55.732Z,35.77
2019-05-13T08:06:22.802Z,37.18
2019-05-13T08:08:52.256Z,37.28
2019-05-13T08:11:19.164Z,36.86
2019-05-13T08:13:46.385Z,35.42
2019-05-13T08:16:13.571Z,35.65
2019-05-13T08:18:43.688Z,37.56
2019-05-13T08:21:12.247Z,39.72
2019-05-13T08:23:41.563Z,40.79
2019-05-13T08:26:08.195Z,39.35
2019-05-13T08:28:35.396Z,40.47
2019-05-13T08:31:02.580Z,39.60
2019-05-13T08:33:32.063Z,39.29
2019-05-13T08:36:01.438Z,40.26
2019-05-13T08:38:28.445Z,40.23
2019-05-13T08:40:55.631Z,36.61
2019-05-13T08:43:22.837Z,34.54
2019-05-13T08:45:51.689Z,33.99
2019-05-13T08:48:22.011Z,34.43
2019-05-13T08:50:48.042Z,36.73
2019-05-13T08:53:15.118Z,38.55
2019-05-13T08:55:42.997Z,40.23
2019-05-13T08:58:12.566Z,41.17
2019-05-13T09:00:52.790Z,40.94
2019-05-13T09:03:21.514Z,41.14
2019-05-13T09:05:51.977Z,42.27
2019-05-13T09:08:22.343Z,41.17
2019-05-13T09:10:51.909Z,40.02
2019-05-13T09:13:18.579Z,39.20
2019-05-13T09:15:45.828Z,39.57
2019-05-13T09:18:13.090Z,38.51
2019-05-13T09:20:41.612Z,38.18
2019-05-13T09:23:11.288Z,38.87
2019-05-13T09:25:38.021Z,39.31
2019-05-13T09:28:05.205Z,39.40
2019-05-13T09:30:32.625Z,40.06
2019-05-13T09:33:01.914Z,38.74
2019-05-13T09:35:28.724Z,36.52
2019-05-13T09:37:56.144Z,36.00
2019-05-13T09:40:23.219Z,35.69
2019-05-13T09:45:21.570Z,33.11
2019-05-13T09:47:48.591Z,32.45
2019-05-13T09:50:28.399Z,31.62
2019-05-13T09:52:45.532Z,30.75
2019-05-13T09:55:25.317Z,30.19
2019-05-13T09:57:41.995Z,29.88
2019-05-13T10:00:12.115Z,27.54
2019-05-13T10:02:38.874Z,25.11
2019-05-13T10:05:06.199Z,22.01
2019-05-13T10:07:33.407Z,19.37
2019-05-13T10:10:01.883Z,18.59
2019-05-13T10:12:31.901Z,17.96
2019-05-13T10:14:58.875Z,17.27
2019-05-13T10:17:26.028Z,16.99
2019-05-13T10:19:53.250Z,16.73
2019-05-13T10:22:21.877Z,16.15
2019-05-13T10:24:51.447Z,15.93
2019-05-13T10:27:19.295Z,15.83
2019-05-13T10:29:47.155Z,15.79
2019-05-13T10:32:14.434Z,15.94
2019-05-13T10:34:42.722Z,15.91
2019-05-13T10:37:11.319Z,15.86
2019-05-13T10:39:38.727Z,15.87
2019-05-13T10:42:05.977Z,15.55
2019-05-13T10:44:33.265Z,15.42
2019-05-13T10:47:02.470Z,15.39
2019-05-13T10:49:32.745Z,15.23
2019-05-13T10:51:58.755Z,15.06
2019-05-13T10:54:26.195Z,15.15
2019-05-13T10:56:58.929Z,15.17
2019-05-13T10:59:23.145Z,15.40
2019-05-13T11:01:50.428Z,15.47
2019-05-13T11:04:17.588Z,15.37
2019-05-13T11:06:45.010Z,15.37
2019-05-13T11:09:13.223Z,15.51
2019-05-13T11:11:41.423Z,15.60
2019-05-13T11:14:12.859Z,15.65
2019-05-13T11:16:37.682Z,15.69
2019-05-13T11:19:04.858Z,15.73
2019-05-13T11:21:32.374Z,15.84
2019-05-13T11:24:03.078Z,15.83
2019-05-13T11:26:29.022Z,15.94
2019-05-13T11:28:56.278Z,15.87
2019-05-13T11:31:23.513Z,15.86
2019-05-13T11:33:52.026Z,15.88
2019-05-13T11:36:19.597Z,15.89
2019-05-13T11:38:46.754Z,15.78
2019-05-13T11:41:13.945Z,15.71
2019-05-13T11:43:41.543Z,15.65
2019-05-13T11:46:09.074Z,15.55
2019-05-13T11:48:36.488Z,15.61
2019-05-13T11:51:04.449Z,15.72
2019-05-13T11:53:34.495Z,15.86
2019-05-13T11:56:03.635Z,15.91
2019-05-13T11:58:32.480Z,16.02
2019-05-13T12:01:02.661Z,16.11
2019-05-13T12:03:32.171Z,16.04
2019-05-13T12:05:58.308Z,15.83
2019-05-13T12:08:25.469Z,15.82
2019-05-13T12:10:52.770Z,15.75
2019-05-13T12:13:22.661Z,15.50
2019-05-13T12:15:50.055Z,15.55
2019-05-13T12:18:18.294Z,15.65
2019-05-13T12:20:45.767Z,15.69
2019-05-13T12:23:13.218Z,15.73
2019-05-13T12:25:43.650Z,15.75
2019-05-13T12:28:11.380Z,15.79
2019-05-13T12:30:38.633Z,15.86
2019-05-13T12:33:07.711Z,15.91
2019-05-13T12:35:34.949Z,15.99
2019-05-13T12:38:02.007Z,15.95
2019-05-13T12:40:33.455Z,15.94
2019-05-13T12:42:58.243Z,15.99
2019-05-13T12:45:25.449Z,15.90
2019-05-13T12:47:53.196Z,15.90
2019-05-13T12:50:23.511Z,15.90
2019-05-13T12:52:51.499Z,15.94
2019-05-13T12:55:18.876Z,16.04
2019-05-13T12:57:46.144Z,16.03
2019-05-13T13:00:13.690Z,16.23
2019-05-13T13:02:48.685Z,16.34
2019-05-13T13:05:19.654Z,16.46
2019-05-13T13:07:42.512Z,16.48
2019-05-13T13:10:14.267Z,16.41
2019-05-13T13:12:41.926Z,16.38
2019-05-13T13:15:33.018Z,16.23
2019-05-13T13:17:37.348Z,16.23
2019-05-13T13:20:09.410Z,16.17
2019-05-13T13:22:34.492Z,16.10
2019-05-13T13:25:04.847Z,16.08
2019-05-13T13:28:01.942Z,16.07
2019-05-13T13:30:04.428Z,16.09
2019-05-13T13:32:32.183Z,16.04
2019-05-13T13:34:58.206Z,16.12
2019-05-13T13:37:25.581Z,16.18
2019-05-13T13:39:55.211Z,16.04
2019-05-13T13:42:21.925Z,16.08
2019-05-13T13:44:53.359Z,16.02
2019-05-13T13:47:18.557Z,16.19
2019-05-13T13:49:45.853Z,16.33
2019-05-13T13:52:16.070Z,16.44
2019-05-13T13:54:44.293Z,16.47
2019-05-13T13:57:13.486Z,16.45
2019-05-13T14:00:14.339Z,16.53
2019-05-13T14:02:13.216Z,16.35
2019-05-13T14:04:38.572Z,16.28
2019-05-13T14:07:00.737Z,33.74
2019-05-13T14:07:22.387Z,16.22
2019-05-13T14:09:34.942Z,16.22
2019-05-13T14:12:02.275Z,16.25
2019-05-13T14:14:31.816Z,16.37
2019-05-13T14:16:58.488Z,16.44
2019-05-13T14:19:25.689Z,16.41
2019-05-13T14:21:52.811Z,16.40
2019-05-13T14:24:21.635Z,16.53
2019-05-13T14:26:48.990Z,16.70
2019-05-13T14:29:16.199Z,16.82
2019-05-13T14:31:43.555Z,16.66
2019-05-13T14:34:11.442Z,16.62
2019-05-13T14:36:39.221Z,16.61
2019-05-13T14:39:06.481Z,16.62
2019-05-13T14:41:33.702Z,16.75
2019-05-13T14:44:03.750Z,16.73
2019-05-13T14:46:44.025Z,16.73
2019-05-13T14:49:01.286Z,16.78
2019-05-13T14:51:28.477Z,16.87
2019-05-13T14:53:55.677Z,16.91
2019-05-13T14:56:22.889Z,16.90
2019-05-13T14:58:52.025Z,16.80
2019-05-13T15:01:21.822Z,16.75
2019-05-13T15:03:48.221Z,16.81
2019-05-13T15:06:15.712Z,16.87
2019-05-13T15:08:42.965Z,16.78
2019-05-13T15:11:12.357Z,16.79
2019-05-13T15:13:39.328Z,16.71
2019-05-13T15:16:06.504Z,16.74
2019-05-13T15:18:33.746Z,16.71
2019-05-13T15:21:01.704Z,16.64
2019-05-13T15:23:31.469Z,16.72
2019-05-13T15:25:58.272Z,16.72
2019-05-13T15:28:25.708Z,16.67
2019-05-13T15:30:52.905Z,16.64
2019-05-13T15:33:21.552Z,16.63
2019-05-13T15:35:48.904Z,16.63
2019-05-13T15:38:16.084Z,16.62
2019-05-13T15:40:43.252Z,16.57
2019-05-13T15:43:11.700Z,16.57
2019-05-13T15:45:38.865Z,16.60
2019-05-13T15:48:05.960Z,16.56
2019-05-13T15:50:33.060Z,16.51
2019-05-13T15:53:02.848Z,16.43
2019-05-13T15:55:29.653Z,16.40
2019-05-13T15:57:56.836Z,16.35
2019-05-13T16:00:24.005Z,16.33
2019-05-13T16:02:52.240Z,16.32
2019-05-13T16:05:19.571Z,16.25
2019-05-13T16:07:47.042Z,16.18
2019-05-13T16:10:14.644Z,16.10
2019-05-13T16:12:41.848Z,16.09
2019-05-13T16:15:13.107Z,16.13
2019-05-13T16:17:42.259Z,15.98
2019-05-13T16:20:08.514Z,15.98
2019-05-13T16:22:35.729Z,15.95
2019-05-13T16:25:03.068Z,15.96
2019-05-13T16:27:31.167Z,15.96
2019-05-13T16:29:58.377Z,15.99
2019-05-13T16:32:25.465Z,15.99
2019-05-13T16:34:52.761Z,15.88
2019-05-13T16:37:21.998Z,15.80
2019-05-13T16:39:52.042Z,15.80
2019-05-13T16:42:22.265Z,15.84
2019-05-13T16:44:48.679Z,15.80
2019-05-13T16:47:16.323Z,15.74
2019-05-13T16:49:43.598Z,15.71
2019-05-13T16:52:11.748Z,15.71
2019-05-13T16:54:42.140Z,15.70
2019-05-13T16:57:08.260Z,15.74
2019-05-13T16:59:35.385Z,15.68
2019-05-13T17:02:02.634Z,15.68
2019-05-13T17:04:31.926Z,15.65
2019-05-13T17:07:01.334Z,15.58
2019-05-13T17:09:28.277Z,15.58
2019-05-13T17:11:55.481Z,15.52
2019-05-13T17:14:22.565Z,15.50
2019-05-13T17:16:51.740Z,15.46
2019-05-13T17:19:18.835Z,15.42
2019-05-13T17:21:46.293Z,15.45
2019-05-13T17:24:13.476Z,15.48
2019-05-13T17:26:41.778Z,15.45
2019-05-13T17:29:09.147Z,15.41
2019-05-13T17:31:36.405Z,15.33
2019-05-13T17:34:03.565Z,15.26
2019-05-13T17:36:32.502Z,15.32
2019-05-13T17:39:01.837Z,15.24
2019-05-13T17:41:29.311Z,15.20
2019-05-13T17:43:56.523Z,15.19
2019-05-13T17:46:23.775Z,15.19
2019-05-13T17:48:52.080Z,15.09
2019-05-13T17:51:19.357Z,15.07
2019-05-13T17:53:46.555Z,15.00
2019-05-13T17:56:13.609Z,15.01
2019-05-13T17:58:42.045Z,14.98
2019-05-13T18:01:09.272Z,14.87
2019-05-13T18:03:36.489Z,14.80
2019-05-13T18:06:03.704Z,14.74
2019-05-13T18:08:32.062Z,14.70
2019-05-13T18:11:01.952Z,14.64
2019-05-13T18:13:29.017Z,14.54
2019-05-13T18:15:56.249Z,14.43
2019-05-13T18:18:38.641Z,14.40
2019-05-13T18:20:52.607Z,14.43
2019-05-13T18:23:20.113Z,14.35
2019-05-13T18:25:47.634Z,14.30
2019-05-13T18:28:27.633Z,14.18
2019-05-13T18:30:44.030Z,14.12
2019-05-13T18:33:11.805Z,14.17
2019-05-13T18:35:41.703Z,14.11
2019-05-13T18:38:08.434Z,13.99
2019-05-13T18:40:35.620Z,13.95
2019-05-13T18:43:02.709Z,13.82
2019-05-13T18:45:29.965Z,13.64
2019-05-13T18:47:57.089Z,13.61
2019-05-13T18:50:24.376Z,13.54
2019-05-13T18:52:52.475Z,13.48
2019-05-13T18:55:20.085Z,13.38
2019-05-13T18:57:47.252Z,13.29
2019-05-13T19:00:14.492Z,13.16
2019-05-13T19:02:41.680Z,13.03
2019-05-13T19:05:11.712Z,12.99
2019-05-13T19:07:38.995Z,12.87
2019-05-13T19:10:06.689Z,12.85
2019-05-13T19:12:33.929Z,12.82
2019-05-13T19:15:02.426Z,12.70
2019-05-13T19:17:32.062Z,12.81
2019-05-13T19:19:59.180Z,12.79
2019-05-13T19:22:26.494Z,12.64
2019-05-13T19:24:53.618Z,12.47
2019-05-13T19:27:21.598Z,12.38
2019-05-13T19:29:48.971Z,12.33
2019-05-13T19:32:16.164Z,12.36
2019-05-13T19:34:43.355Z,12.26
2019-05-13T19:37:11.581Z,12.17
2019-05-13T19:39:39.006Z,12.15
2019-05-13T19:42:06.193Z,12.04
2019-05-13T19:44:33.454Z,11.95
2019-05-13T19:47:01.916Z,11.92
2019-05-13T19:49:36.673Z,11.89
2019-05-13T19:52:01.619Z,11.87
2019-05-13T19:54:28.293Z,11.88
2019-05-13T19:56:55.478Z,11.84
2019-05-13T19:59:23.282Z,11.80
2019-05-13T20:01:51.630Z,11.74
2019-05-13T20:04:21.693Z,11.73
2019-05-13T20:06:48.275Z,11.73
2019-05-13T20:09:15.854Z,11.59
2019-05-13T20:11:42.992Z,11.55
2019-05-13T20:14:12.160Z,11.66
2019-05-13T20:16:41.544Z,11.65
2019-05-13T20:19:08.336Z,11.63
2019-05-13T20:21:36.010Z,11.51
2019-05-13T20:24:03.197Z,11.47
2019-05-13T20:26:32.240Z,11.37
2019-05-13T20:29:01.565Z,11.25
2019-05-13T20:31:29.107Z,11.26
2019-05-13T20:33:56.538Z,11.18
2019-05-13T20:36:23.770Z,11.15
2019-05-13T20:38:51.701Z,11.06
2019-05-13T20:41:19.210Z,11.00
2019-05-13T20:43:46.758Z,10.92
2019-05-13T20:46:13.923Z,10.91
2019-05-13T20:48:41.274Z,10.88
2019-05-13T20:51:08.472Z,10.83
2019-05-13T20:53:35.696Z,10.89
2019-05-13T20:56:02.919Z,10.84
2019-05-13T20:58:31.836Z,10.79
2019-05-13T21:00:59.248Z,10.77
2019-05-13T21:03:26.416Z,10.73
2019-05-13T21:05:53.539Z,10.72
2019-05-13T21:08:21.752Z,10.68
2019-05-13T21:10:51.575Z,10.60
2019-05-13T21:13:18.178Z,10.64
2019-05-13T21:15:45.696Z,10.60
2019-05-13T21:18:12.839Z,10.63
2019-05-13T21:20:40.962Z,10.50
2019-05-13T21:23:08.202Z,10.40
2019-05-13T21:25:36.742Z,10.28
2019-05-13T21:28:04.348Z,10.25
2019-05-13T21:30:31.582Z,10.24
2019-05-13T21:32:58.662Z,10.19
2019-05-13T21:35:25.740Z,10.14
2019-05-13T21:37:52.916Z,10.12
2019-05-13T21:40:21.683Z,10.09
2019-05-13T21:42:49.648Z,10.09
2019-05-13T21:45:16.738Z,10.08
2019-05-13T21:47:43.824Z,10.05
2019-05-13T21:50:11.660Z,9.99
2019-05-13T21:52:41.547Z,9.96
2019-05-13T21:55:08.432Z,9.97
2019-05-13T21:57:35.684Z,9.94
2019-05-13T22:00:06.791Z,9.87
2019-05-13T22:02:35.411Z,9.84
2019-05-13T22:05:02.832Z,9.78
2019-05-13T22:07:31.542Z,9.82
2019-05-13T22:09:58.805Z,9.83
2019-05-13T22:12:26.069Z,9.79
2019-05-13T22:14:53.232Z,9.77
2019-05-13T22:17:20.430Z,9.69
2019-05-13T22:19:47.914Z,9.60
2019-05-13T22:22:14.977Z,9.54
2019-05-13T22:24:42.238Z,9.61
2019-05-13T22:27:10.971Z,9.68
2019-05-13T22:29:38.491Z,9.66
2019-05-13T22:32:05.767Z,9.64
2019-05-13T22:34:33.216Z,9.59
2019-05-13T22:37:02.344Z,9.55
2019-05-13T22:39:34.471Z,9.64
2019-05-13T22:42:01.109Z,9.55
2019-05-13T22:44:28.541Z,9.44
2019-05-13T22:46:55.742Z,9.51
2019-05-13T22:49:22.992Z,9.49
2019-05-13T22:51:51.592Z,9.46
2019-05-13T22:54:21.098Z,9.41
2019-05-13T22:56:48.324Z,9.40
2019-05-13T22:59:15.764Z,9.34
2019-05-13T23:01:42.924Z,9.46
2019-05-13T23:04:11.473Z,9.40
2019-05-13T23:06:38.817Z,9.45
2019-05-13T23:09:05.858Z,9.37
2019-05-13T23:11:33.079Z,9.40
2019-05-13T23:14:09.589Z,9.38
2019-05-13T23:16:31.477Z,9.29
2019-05-13T23:18:58.630Z,9.25
2019-05-13T23:21:25.837Z,9.23
2019-05-13T23:23:52.990Z,9.19
2019-05-13T23:26:21.054Z,9.07
2019-05-13T23:28:48.620Z,9.04
2019-05-13T23:31:15.794Z,9.03
2019-05-13T23:33:42.973Z,8.93
2019-05-13T23:36:12.001Z,8.86
2019-05-13T23:38:41.385Z,8.84
2019-05-13T23:41:08.403Z,8.99
2019-05-13T23:43:35.606Z,8.95
2019-05-13T23:46:02.779Z,8.85
2019-05-13T23:48:31.991Z,8.75
2019-05-13T23:51:01.202Z,8.69
2019-05-13T23:53:28.119Z,8.68
2019-05-13T23:55:55.211Z,8.66
2019-05-13T23:58:22.435Z,8.68
